createdAt,value
2023-04-18T00:01:43.144Z,101383.52
2023-04-18T00:04:51.347Z,101381.63
2023-04-18T00:08:13.687Z,101380.27
2023-04-18T00:11:34.077Z,101379.06
2023-04-18T00:14:38.086Z,101378.90
2023-04-18T00:18:14.360Z,101381.55
2023-04-18T00:21:40.385Z,101375.84
2023-04-18T00:25:09.584Z,101378.13
2023-04-18T00:28:33.976Z,101376.74
2023-04-18T00:32:11.831Z,101377.95
2023-04-18T00:35:39.448Z,101378.64
2023-04-18T00:39:01.686Z,101378.30
2023-04-18T00:42:33.467Z,101379.71
2023-04-18T00:45:39.613Z,101378.83
2023-04-18T00:49:11.071Z,101379.87
2023-04-18T00:52:39.868Z,101378.48
2023-04-18T00:56:06.304Z,101380.23
2023-04-18T00:59:33.654Z,101375.35
2023-04-18T01:02:53.393Z,101380.05
2023-04-18T01:06:33.084Z,101377.61
2023-04-18T01:09:58.914Z,101375.88
2023-04-18T01:13:50.024Z,101376.05
2023-04-18T01:17:06.632Z,101376.92
2023-04-18T01:24:30.446Z,101377.78
2023-04-18T01:27:34.236Z,101376.91
2023-04-18T01:31:05.402Z,101375.89
2023-04-18T01:34:20.560Z,101378.00
2023-04-18T01:37:39.933Z,101374.67
2023-04-18T01:41:14.404Z,101373.48
2023-04-18T01:44:34.601Z,101367.92
2023-04-18T01:47:43.086Z,101372.27
2023-04-18T01:51:04.493Z,101369.98
2023-04-18T01:54:43.624Z,101371.56
2023-04-18T01:58:04.323Z,101370.88
2023-04-18T02:01:22.997Z,101371.42
2023-04-18T02:05:03.657Z,101369.35
2023-04-18T02:08:18.207Z,101366.73
2023-04-18T02:11:37.483Z,101369.50
2023-04-18T02:15:02.590Z,101366.36
2023-04-18T02:18:11.515Z,101369.48
2023-04-18T02:21:20.243Z,101369.99
2023-04-18T02:24:42.101Z,101367.05
2023-04-18T02:27:56.055Z,101370.73
2023-04-18T02:31:35.874Z,101370.56
2023-04-18T02:34:58.001Z,101370.38
2023-04-18T02:38:21.671Z,101372.99
2023-04-18T02:41:40.741Z,101371.80
2023-04-18T02:45:07.074Z,101378.08
2023-04-18T02:48:30.854Z,101373.58
2023-04-18T02:51:39.572Z,101374.85
2023-04-18T02:55:00.425Z,101377.65
2023-04-18T02:58:19.282Z,101379.22
2023-04-18T03:01:48.407Z,101380.29
2023-04-18T03:05:10.748Z,101386.04
2023-04-18T03:08:26.979Z,101383.77
2023-04-18T03:11:32.320Z,101381.89
2023-04-18T03:14:56.620Z,101385.22
2023-04-18T03:18:13.627Z,101385.58
2023-04-18T03:21:22.554Z,101381.41
2023-04-18T03:24:50.833Z,101385.94
2023-04-18T03:27:53.099Z,101384.56
2023-04-18T03:31:10.250Z,101383.17
2023-04-18T03:34:22.935Z,101382.45
2023-04-18T03:37:38.418Z,101379.31
2023-04-18T03:41:06.406Z,101380.72
2023-04-18T03:44:26.787Z,101383.70
2023-04-18T03:47:58.330Z,101382.49
2023-04-18T03:51:29.900Z,101384.58
2023-04-18T03:54:47.125Z,101381.83
2023-04-18T03:58:16.738Z,101380.59
2023-04-18T04:01:46.664Z,101378.88
2023-04-18T04:05:05.157Z,101379.23
2023-04-18T04:08:28.236Z,101383.92
2023-04-18T04:12:00.564Z,101382.86
2023-04-18T04:15:12.956Z,101377.30
2023-04-18T04:18:31.916Z,101379.44
2023-04-18T04:21:55.859Z,101381.70
2023-04-18T04:25:14.055Z,101385.89
2023-04-18T04:28:28.909Z,101385.72
2023-04-18T04:31:55.786Z,101383.84
2023-04-18T04:34:52.295Z,101388.18
2023-04-18T04:37:49.441Z,101386.95
2023-04-18T04:40:44.338Z,101390.41
2023-04-18T04:43:47.172Z,101391.94
2023-04-18T04:46:40.599Z,101393.48
2023-04-18T04:49:30.975Z,101391.02
2023-04-18T04:52:12.976Z,101392.56
2023-04-18T04:54:56.200Z,101389.75
2023-04-18T04:57:40.787Z,101394.08
2023-04-18T05:00:42.515Z,101394.55
2023-04-18T05:03:36.885Z,101393.50
2023-04-18T05:06:40.237Z,101392.58
2023-04-18T05:09:24.249Z,101399.18
2023-04-18T05:12:07.578Z,101404.89
2023-04-18T05:14:55.711Z,101407.15
2023-04-18T05:17:55.059Z,101404.02
2023-04-18T05:21:03.130Z,101407.98
2023-04-18T05:23:58.836Z,101409.86
2023-04-18T05:27:06.234Z,101413.01
2023-04-18T05:29:53.039Z,101412.11
2023-04-18T05:32:46.209Z,101413.82
2023-04-18T05:35:30.240Z,101414.68
2023-04-18T05:38:20.232Z,101417.80
2023-04-18T05:41:12.361Z,101420.41
2023-04-18T05:44:16.839Z,101416.69
2023-04-18T05:47:11.177Z,101418.06
2023-04-18T05:50:17.334Z,101415.59
2023-04-18T05:52:59.457Z,101420.41
2023-04-18T05:55:46.757Z,101420.04
2023-04-18T05:58:38.684Z,101421.58
2023-04-18T06:01:18.968Z,101418.21
2023-04-18T06:04:14.381Z,101418.35
2023-04-18T06:07:06.992Z,101421.39
2023-04-18T06:10:16.682Z,101421.88
2023-04-18T06:13:13.683Z,101420.63
2023-04-18T06:16:06.953Z,101421.98
2023-04-18T06:19:06.265Z,101424.38
2023-04-18T06:21:53.355Z,101432.22
2023-04-18T06:24:44.986Z,101432.39
2023-04-18T06:27:50.123Z,101430.98
2023-04-18T06:30:37.034Z,101436.38
2023-04-18T06:33:32.342Z,101436.56
2023-04-18T06:36:14.120Z,101437.13
2023-04-18T06:38:52.987Z,101437.84
2023-04-18T06:41:38.746Z,101440.81
2023-04-18T06:44:32.211Z,101443.04
2023-04-18T06:47:31.872Z,101446.86
2023-04-18T06:50:23.742Z,101451.66
2023-04-18T06:53:12.430Z,101454.63
2023-04-18T06:55:55.923Z,101451.83
2023-04-18T06:58:42.941Z,101453.73
2023-04-18T07:01:25.893Z,101453.41
2023-04-18T07:04:14.499Z,101455.16
2023-04-18T07:07:10.130Z,101458.48
2023-04-18T07:10:09.130Z,101458.70
2023-04-18T07:12:48.073Z,101457.30
2023-04-18T07:15:41.098Z,101462.58
2023-04-18T07:18:34.254Z,101461.36
2023-04-18T07:21:26.821Z,101463.62
2023-04-18T07:24:27.240Z,101465.52
2023-04-18T07:27:10.560Z,101468.06
2023-04-18T07:29:59.103Z,101472.05
2023-04-18T07:32:53.420Z,101468.70
2023-04-18T07:35:46.956Z,101469.74
2023-04-18T07:38:53.014Z,101468.68
2023-04-18T07:41:33.168Z,101470.35
2023-04-18T07:44:29.606Z,101471.56
2023-04-18T07:47:29.416Z,101469.08
2023-04-18T07:50:24.967Z,101472.71
2023-04-18T07:53:43.697Z,101473.88
2023-04-18T07:56:52.004Z,101473.64
2023-04-18T07:59:57.043Z,101475.33
2023-04-18T08:03:07.696Z,101474.04
2023-04-18T08:06:17.044Z,101479.14
2023-04-18T08:09:14.327Z,101476.84
2023-04-18T08:11:56.914Z,101475.05
2023-04-18T08:14:51.092Z,101473.28
2023-04-18T08:17:56.019Z,101474.10
2023-04-18T08:20:35.371Z,101477.84
2023-04-18T08:23:31.695Z,101479.18
2023-04-18T08:26:15.536Z,101477.86
2023-04-18T08:28:53.430Z,101477.37
2023-04-18T08:31:38.060Z,101481.25
2023-04-18T08:34:38.001Z,101481.20
2023-04-18T08:37:21.947Z,101483.45
2023-04-18T08:40:25.150Z,101486.05
2023-04-18T08:43:10.311Z,101487.41
2023-04-18T08:45:52.832Z,101489.00
2023-04-18T08:48:45.364Z,101489.18
2023-04-18T08:51:44.153Z,101490.73
2023-04-18T08:54:44.273Z,101492.59
2023-04-18T08:57:56.506Z,101495.89
2023-04-18T09:00:46.355Z,101498.62
2023-04-18T09:04:08.933Z,101501.00
2023-04-18T09:06:52.975Z,101505.70
2023-04-18T09:09:49.276Z,101509.73
2023-04-18T09:12:47.964Z,101509.27
2023-04-18T09:15:45.837Z,101509.12
2023-04-18T09:18:43.358Z,101510.50
2023-04-18T09:21:57.748Z,101511.55
2023-04-18T09:24:56.862Z,101510.12
2023-04-18T09:27:47.752Z,101511.34
2023-04-18T09:30:47.659Z,101513.79
2023-04-18T09:33:44.961Z,101514.66
2023-04-18T09:36:35.448Z,101515.75
2023-04-18T09:39:45.702Z,101516.46
2023-04-18T09:42:39.964Z,101512.48
2023-04-18T09:45:58.131Z,101518.39
2023-04-18T09:49:12.964Z,101515.05
2023-04-18T09:52:36.334Z,101514.11
2023-04-18T09:56:07.279Z,101514.39
2023-04-18T09:59:43.541Z,101513.60
2023-04-18T10:03:12.176Z,101513.67
2023-04-18T10:06:37.754Z,101512.20
2023-04-18T10:10:05.027Z,101515.43
2023-04-18T10:13:17.881Z,101508.90
2023-04-18T10:16:50.501Z,101511.80
2023-04-18T10:20:11.913Z,101508.06
2023-04-18T10:23:56.186Z,101506.23
2023-04-18T10:27:15.679Z,101505.65
2023-04-18T10:30:37.497Z,101506.02
2023-04-18T10:34:18.479Z,101504.42
2023-04-18T10:37:35.279Z,101502.41
2023-04-18T10:40:49.534Z,101500.05
2023-04-18T10:44:38.118Z,101497.27
2023-04-18T10:48:16.320Z,101490.95
2023-04-18T10:51:59.124Z,101492.44
2023-04-18T11:03:10.622Z,101486.95
2023-04-18T11:06:25.942Z,101489.27
2023-04-18T11:09:40.585Z,101486.92
2023-04-18T11:12:42.566Z,101482.77
2023-04-18T11:15:36.031Z,101486.02
2023-04-18T11:18:54.993Z,101489.65
2023-04-18T11:22:07.816Z,101487.16
2023-04-18T11:25:00.791Z,101487.00
2023-04-18T11:28:13.684Z,101481.75
2023-04-18T11:31:18.521Z,101481.05
2023-04-18T11:34:21.204Z,101481.92
2023-04-18T11:37:48.660Z,101483.80
2023-04-18T11:41:15.528Z,101483.45
2023-04-18T11:44:11.987Z,101484.48
2023-04-18T11:47:41.957Z,101487.23
2023-04-18T11:50:39.322Z,101484.38
2023-04-18T11:53:50.396Z,101486.64
2023-04-18T11:56:39.559Z,101485.50
2023-04-18T11:59:38.863Z,101487.71
2023-04-18T12:03:06.234Z,101488.42
2023-04-18T12:05:58.548Z,101486.66
2023-04-18T12:09:28.628Z,101487.30
2023-04-18T12:12:38.415Z,101483.33
2023-04-18T12:15:23.511Z,101479.69
2023-04-18T12:18:20.239Z,101477.75
2023-04-18T12:21:15.244Z,101477.91
2023-04-18T12:23:59.591Z,101480.77
2023-04-18T12:27:12.105Z,101477.69
2023-04-18T12:30:04.241Z,101481.46
2023-04-18T12:33:15.826Z,101482.98
2023-04-18T12:36:10.666Z,101479.30
2023-04-18T12:39:04.910Z,101478.55
2023-04-18T12:42:06.468Z,101477.97
2023-04-18T12:45:13.543Z,101476.17
2023-04-18T12:48:13.363Z,101476.39
2023-04-18T12:51:25.173Z,101474.17
2023-04-18T12:54:15.353Z,101465.31
2023-04-18T12:57:32.047Z,101468.55
2023-04-18T13:00:30.372Z,101470.58
2023-04-18T13:03:41.912Z,101468.40
2023-04-18T13:06:54.562Z,101463.75
2023-04-18T13:09:51.067Z,101465.86
2023-04-18T13:12:49.695Z,101459.58
2023-04-18T13:15:55.048Z,101459.90
2023-04-18T13:18:45.493Z,101459.52
2023-04-18T13:21:49.478Z,101455.06
2023-04-18T13:24:38.351Z,101451.25
2023-04-18T13:27:29.696Z,101450.60
2023-04-18T13:30:15.893Z,101450.09
2023-04-18T13:33:07.958Z,101449.77
2023-04-18T13:36:08.229Z,101443.74
2023-04-18T13:39:07.647Z,101443.92
2023-04-18T13:41:56.187Z,101444.02
2023-04-18T13:44:50.777Z,101444.69
2023-04-18T13:47:30.566Z,101447.84
2023-04-18T13:50:24.529Z,101448.54
2023-04-18T13:53:16.320Z,101445.15
2023-04-18T13:55:56.677Z,101444.48
2023-04-18T13:59:10.280Z,101444.56
2023-04-18T14:01:46.908Z,101446.59
2023-04-18T14:04:27.655Z,101443.14
2023-04-18T14:07:19.789Z,101447.33
2023-04-18T14:10:16.020Z,101445.52
2023-04-18T14:13:12.656Z,101447.77
2023-04-18T14:16:00.855Z,101447.82
2023-04-18T14:18:54.463Z,101445.13
2023-04-18T14:21:58.382Z,101443.79
2023-04-18T14:24:52.658Z,101444.34
2023-04-18T14:27:36.351Z,101444.02
2023-04-18T14:30:24.436Z,101445.11
2023-04-18T14:33:27.424Z,101440.98
2023-04-18T14:36:18.230Z,101439.80
2023-04-18T14:39:13.451Z,101440.34
2023-04-18T14:41:56.144Z,101441.77
2023-04-18T14:44:48.997Z,101441.46
2023-04-18T14:47:46.607Z,101437.16
2023-04-18T14:50:34.500Z,101435.09
2023-04-18T14:53:30.005Z,101437.31
2023-04-18T14:56:15.998Z,101435.66
2023-04-18T14:58:55.734Z,101432.80
2023-04-18T15:01:57.538Z,101432.08
2023-04-18T15:04:35.080Z,101431.53
2023-04-18T15:07:15.251Z,101427.72
2023-04-18T15:09:58.260Z,101426.96
2023-04-18T15:12:39.538Z,101430.70
2023-04-18T15:15:40.112Z,101434.08
2023-04-18T15:18:30.368Z,101430.46
2023-04-18T15:21:19.014Z,101432.45
2023-04-18T15:23:52.613Z,101430.36
2023-04-18T15:26:31.694Z,101430.36
2023-04-18T15:29:12.835Z,101431.02
2023-04-18T15:31:49.473Z,101428.90
2023-04-18T15:34:31.381Z,101427.13
2023-04-18T15:37:05.807Z,101427.38
2023-04-18T15:39:40.134Z,101422.57
2023-04-18T15:42:28.168Z,101423.69
2023-04-18T15:45:12.709Z,101423.59
2023-04-18T15:47:51.714Z,101425.98
2023-04-18T15:50:39.269Z,101429.91
2023-04-18T15:53:16.653Z,101429.05
2023-04-18T15:56:08.070Z,101427.02
2023-04-18T15:58:56.210Z,101425.39
2023-04-18T16:01:49.287Z,101429.02
2023-04-18T16:04:34.261Z,101431.55
2023-04-18T16:07:24.090Z,101431.63
2023-04-18T16:10:20.668Z,101431.70
2023-04-18T16:13:03.354Z,101431.77
2023-04-18T16:15:54.539Z,101429.30
2023-04-18T16:18:32.478Z,101427.02
2023-04-18T16:21:10.896Z,101424.05
2023-04-18T16:24:11.808Z,101427.56
2023-04-18T16:27:01.301Z,101419.36
2023-04-18T16:29:38.903Z,101420.27
2023-04-18T16:32:24.405Z,101418.92
2023-04-18T16:35:17.936Z,101412.11
2023-04-18T16:38:01.992Z,101411.73
2023-04-18T16:41:01.746Z,101414.74
2023-04-18T16:43:43.896Z,101409.52
2023-04-18T16:46:25.622Z,101408.55
2023-04-18T16:49:16.391Z,101411.42
2023-04-18T16:52:10.365Z,101409.77
2023-04-18T16:55:21.863Z,101409.02
2023-04-18T16:58:04.469Z,101412.10
2023-04-18T17:01:03.248Z,101413.80
2023-04-18T17:03:56.596Z,101412.14
2023-04-18T17:06:41.795Z,101410.85
2023-04-18T17:09:33.812Z,101412.35
2023-04-18T17:12:31.885Z,101412.98
2023-04-18T17:15:43.064Z,101410.09
2023-04-18T17:18:30.901Z,101414.20
2023-04-18T17:21:24.875Z,101413.05
2023-04-18T17:24:23.258Z,101417.69
2023-04-18T17:27:15.084Z,101417.39
2023-04-18T17:29:59.336Z,101422.67
2023-04-18T17:32:46.186Z,101420.80
2023-04-18T17:35:50.561Z,101420.18
2023-04-18T17:38:48.958Z,101420.79
2023-04-18T17:41:55.508Z,101418.06
2023-04-18T17:44:57.788Z,101419.70
2023-04-18T17:47:42.602Z,101417.83
2023-04-18T17:50:58.022Z,101416.46
2023-04-18T17:54:01.027Z,101416.66
2023-04-18T17:56:51.200Z,101411.24
2023-04-18T17:59:37.846Z,101414.04
2023-04-18T18:02:44.917Z,101415.11
2023-04-18T18:05:40.922Z,101416.71
2023-04-18T18:08:43.197Z,101419.23
2023-04-18T18:11:53.981Z,101418.59
2023-04-18T18:15:05.783Z,101418.31
2023-04-18T18:18:14.648Z,101416.80
2023-04-18T18:21:11.588Z,101415.28
2023-04-18T18:24:36.019Z,101416.77
2023-04-18T18:27:46.889Z,101420.14
2023-04-18T18:30:45.696Z,101418.55
2023-04-18T18:33:41.297Z,101419.96
2023-04-18T18:36:54.216Z,101421.04
2023-04-18T18:39:58.748Z,101425.10
2023-04-18T18:42:57.730Z,101424.99
2023-04-18T18:45:47.622Z,101424.02
2023-04-18T18:48:58.082Z,101426.39
2023-04-18T18:51:54.413Z,101430.33
2023-04-18T18:54:37.532Z,101427.77
2023-04-18T18:57:37.955Z,101426.77
2023-04-18T19:00:36.442Z,101425.29
2023-04-18T19:03:22.849Z,101423.25
2023-04-18T19:06:25.420Z,101421.52
2023-04-18T19:09:09.978Z,101417.38
2023-04-18T19:12:08.768Z,101423.73
2023-04-18T19:15:03.277Z,101416.25
2023-04-18T19:17:49.066Z,101420.29
2023-04-18T19:20:49.572Z,101423.30
2023-04-18T19:23:42.431Z,101421.05
2023-04-18T19:26:45.308Z,101420.94
2023-04-18T19:29:36.418Z,101420.09
2023-04-18T19:32:27.842Z,101419.96
2023-04-18T19:35:24.330Z,101418.79
2023-04-18T19:38:22.557Z,101414.98
2023-04-18T19:41:37.413Z,101412.05
2023-04-18T19:44:29.346Z,101410.16
2023-04-18T19:47:33.413Z,101408.61
2023-04-18T19:50:34.396Z,101407.23
2023-04-18T19:53:15.885Z,101403.91
2023-04-18T19:55:59.416Z,101402.89
2023-04-18T19:58:58.003Z,101403.78
2023-04-18T20:01:46.756Z,101404.30
2023-04-18T20:04:38.426Z,101406.64
2023-04-18T20:07:49.944Z,101407.17
2023-04-18T20:10:41.483Z,101404.92
2023-04-18T20:13:24.707Z,101401.65
2023-04-18T20:16:09.120Z,101401.48
2023-04-18T20:19:04.162Z,101401.76
2023-04-18T20:21:53.019Z,101402.52
2023-04-18T20:24:42.900Z,101402.39
2023-04-18T20:27:37.800Z,101399.61
2023-04-18T20:30:51.369Z,101400.14
2023-04-18T20:33:48.691Z,101396.55
2023-04-18T20:36:26.087Z,101394.33
2023-04-18T20:39:19.747Z,101394.35
2023-04-18T20:42:24.074Z,101391.95
2023-04-18T20:45:27.978Z,101394.45
2023-04-18T20:48:33.316Z,101393.07
2023-04-18T20:51:37.249Z,101391.58
2023-04-18T20:54:23.322Z,101393.20
2023-04-18T20:57:30.207Z,101390.70
2023-04-18T21:00:30.528Z,101384.31
2023-04-18T21:03:31.287Z,101388.60
2023-04-18T21:06:22.196Z,101386.55
2023-04-18T21:09:26.588Z,101384.48
2023-04-18T21:12:21.794Z,101380.67
2023-04-18T21:15:22.637Z,101380.88
2023-04-18T21:18:29.952Z,101381.08
2023-04-18T21:21:19.905Z,101379.21
2023-04-18T21:24:24.837Z,101372.77
2023-04-18T21:27:16.971Z,101371.23
2023-04-18T21:30:09.355Z,101370.39
2023-04-18T21:33:09.536Z,101367.87
2023-04-18T21:36:05.147Z,101364.30
2023-04-18T21:39:20.756Z,101362.45
2023-04-18T21:42:18.909Z,101363.38
2023-04-18T21:45:23.177Z,101359.23
2023-04-18T21:48:31.853Z,101356.85
2023-04-18T21:51:45.998Z,101356.54
2023-04-18T21:55:00.354Z,101355.85
2023-04-18T21:58:08.970Z,101357.42
2023-04-18T22:01:26.760Z,101357.05
2023-04-18T22:04:36.713Z,101357.16
2023-04-18T22:07:59.170Z,101356.34
2023-04-18T22:11:13.839Z,101354.80
2023-04-18T22:14:21.462Z,101349.47
2023-04-18T22:17:44.598Z,101347.20
2023-04-18T22:21:05.837Z,101348.93
2023-04-18T22:24:33.565Z,101348.25
2023-04-18T22:27:18.269Z,101344.19
2023-04-18T22:30:30.460Z,101344.05
2023-04-18T22:33:48.893Z,101344.73
2023-04-18T22:36:58.767Z,101341.06
2023-04-18T22:39:43.939Z,101340.23
2023-04-18T22:43:13.057Z,101337.69
2023-04-18T22:46:07.966Z,101337.23
2023-04-18T22:49:27.514Z,101334.34
2023-04-18T22:52:25.913Z,101333.20
2023-04-18T22:55:20.892Z,101329.95
2023-04-18T22:58:12.541Z,101324.98
2023-04-18T23:01:20.243Z,101329.61
2023-04-18T23:04:29.243Z,101325.35
2023-04-18T23:07:32.004Z,101322.96
2023-04-18T23:10:23.037Z,101323.00
2023-04-18T23:13:25.104Z,101320.40
2023-04-18T23:16:29.279Z,101317.48
2023-04-18T23:19:26.269Z,101314.01
2023-04-18T23:22:20.557Z,101311.77
2023-04-18T23:25:20.377Z,101307.09
2023-04-18T23:28:25.576Z,101305.08
2023-04-18T23:31:33.024Z,101301.98
2023-04-18T23:34:47.558Z,101297.02
2023-04-18T23:37:47.900Z,101295.88
2023-04-18T23:40:51.793Z,101288.98
2023-04-18T23:43:58.367Z,101288.00
2023-04-18T23:46:53.348Z,101283.71
2023-04-18T23:50:05.830Z,101281.34
2023-04-18T23:53:08.968Z,101279.00
2023-04-18T23:56:06.957Z,101275.95
2023-04-18T23:59:14.950Z,101273.91
